Jersey Mills, Pennsylvania
Current Conditions -  °F | °C
As of 11:15 AM on Wednesday 26 Nov 2014 (Local Time) from KN38 Reporting Station
Light Snow Light Snow  
Wind Chill: 21°   Ceiling: 300
Heat Index: 28°   Visibility: 0.5mi
Dew Point: 25°   Wind: 7mph
Humidity: 86%   Direction: 40°NE
Pressure: 30.08"   Gusts: NA
Location:  41.44°N, 77.41°W
Report Text: KN38 261615Z AUTO 04006KT 1/2SM -SN BKN003 BKN025 M02/M04 A3008 RMK AO2
Loading
Personal Weather Stations






























Interactive Weather Map New forecast layout! Learn more

10-Day Weather Forecast

Advertisements
Track Severe Weather on mobile